createdAt,value
2022-08-14T00:02:33.248Z,96432.03
2022-08-14T00:05:33.526Z,96439.53
2022-08-14T00:08:44.408Z,96438.22
2022-08-14T00:11:43.619Z,96432.38
2022-08-14T00:14:41.061Z,96433.53
2022-08-14T00:17:48.448Z,96434.41
2022-08-14T00:20:51.158Z,96434.41
2022-08-14T00:23:53.996Z,96427.59
2022-08-14T00:26:52.647Z,96427.53
2022-08-14T00:29:51.690Z,96422.78
2022-08-14T00:32:50.610Z,96423.47
2022-08-14T00:36:36.650Z,96420.47
2022-08-14T00:39:15.125Z,96415.94
2022-08-14T00:42:52.334Z,96405.22
2022-08-14T00:45:37.038Z,96402.25
2022-08-14T00:48:36.935Z,96405.06
2022-08-14T00:51:38.328Z,96399.91
2022-08-14T00:54:38.837Z,96396.91
2022-08-14T00:57:39.129Z,96395.34
2022-08-14T01:00:47.282Z,96402.41
2022-08-14T01:03:52.707Z,96390.75
2022-08-14T01:06:51.999Z,96391.66
2022-08-14T01:09:58.835Z,96395.59
2022-08-14T01:12:55.998Z,96381.41
2022-08-14T01:16:02.684Z,96391.78
2022-08-14T01:19:19.854Z,96377.38
2022-08-14T01:22:18.809Z,96379.03
2022-08-14T01:25:16.027Z,96380.97
2022-08-14T01:28:47.211Z,96377.97
2022-08-14T01:31:38.313Z,96385.97
2022-08-14T01:35:18.069Z,96376.28
2022-08-14T01:37:56.308Z,96381.16
2022-08-14T01:40:54.335Z,96373.59
2022-08-14T01:44:02.409Z,96367.81
2022-08-14T01:47:05.890Z,96373.19
2022-08-14T01:50:05.781Z,96381.13
2022-08-14T01:53:03.445Z,96377.28
2022-08-14T01:56:05.305Z,96373.91
2022-08-14T01:59:26.763Z,96362.66
2022-08-14T02:02:37.328Z,96361.16
2022-08-14T02:05:38.608Z,96356.88
2022-08-14T02:08:37.951Z,96357.63
2022-08-14T02:11:54.375Z,96363.44
2022-08-14T02:15:00.716Z,96356.19
2022-08-14T02:18:01.498Z,96360.22
2022-08-14T02:20:59.549Z,96358.56
2022-08-14T02:23:57.038Z,96348.50
2022-08-14T02:26:58.361Z,96338.88
2022-08-14T02:30:12.267Z,96333.16
2022-08-14T02:33:10.822Z,96335.34
2022-08-14T02:37:02.552Z,96335.56
2022-08-14T02:39:27.756Z,96325.75
2022-08-14T02:42:37.202Z,96325.66
2022-08-14T02:45:38.784Z,96322.69
2022-08-14T02:49:03.121Z,96325.75
2022-08-14T02:52:00.026Z,96323.94
2022-08-14T02:54:57.505Z,96326.44
2022-08-14T02:58:03.272Z,96321.41
2022-08-14T03:01:01.471Z,96312.81
2022-08-14T03:03:59.517Z,96317.06
2022-08-14T03:07:06.687Z,96315.13
2022-08-14T03:10:26.968Z,96310.44
2022-08-14T03:13:23.939Z,96312.50
2022-08-14T03:16:26.906Z,96318.66
2022-08-14T03:19:23.921Z,96327.78
2022-08-14T03:22:20.960Z,96311.91
2022-08-14T03:25:18.398Z,96322.38
2022-08-14T03:28:32.882Z,96309.41
2022-08-14T03:31:30.498Z,96306.97
2022-08-14T03:34:47.677Z,96304.84
2022-08-14T03:39:10.505Z,96293.28
2022-08-14T03:41:01.791Z,96295.53
2022-08-14T03:45:26.419Z,96292.81
2022-08-14T03:47:19.804Z,96291.91
2022-08-14T03:50:24.273Z,96288.19
2022-08-14T03:53:28.137Z,96286.97
2022-08-14T03:56:30.058Z,96276.72
2022-08-14T03:59:28.634Z,96280.19
2022-08-14T04:02:32.296Z,96282.72
2022-08-14T04:05:43.149Z,96269.06
2022-08-14T04:08:45.718Z,96271.22
2022-08-14T04:11:43.745Z,96273.72
2022-08-14T04:14:40.678Z,96260.97
2022-08-14T04:17:39.078Z,96266.19
2022-08-14T04:20:54.808Z,96253.19
2022-08-14T04:23:57.346Z,96249.72
2022-08-14T04:26:55.650Z,96246.22
2022-08-14T04:29:53.267Z,96233.72
2022-08-14T04:33:01.886Z,96242.88
2022-08-14T04:36:01.509Z,96253.53
2022-08-14T04:39:17.823Z,96250.03
2022-08-14T04:42:33.574Z,96240.69
2022-08-14T04:45:36.313Z,96235.91
2022-08-14T04:48:42.873Z,96240.03
2022-08-14T04:51:46.939Z,96247.34
2022-08-14T04:54:54.474Z,96234.97
2022-08-14T04:57:52.159Z,96230.97
2022-08-14T05:00:50.926Z,96222.44
2022-08-14T05:03:49.623Z,96224.44
2022-08-14T05:06:49.345Z,96228.53
2022-08-14T05:09:47.971Z,96220.88
2022-08-14T05:13:14.231Z,96225.66
2022-08-14T05:16:05.902Z,96220.88
2022-08-14T05:19:17.738Z,96213.38
2022-08-14T05:22:21.653Z,96211.19
2022-08-14T05:25:20.051Z,96198.53
2022-08-14T05:28:22.096Z,96201.75
2022-08-14T05:31:20.783Z,96192.84
2022-08-14T05:34:18.016Z,96176.53
2022-08-14T05:37:15.944Z,96171.25
2022-08-14T05:40:12.822Z,96182.28
2022-08-14T05:43:10.425Z,96184.88
2022-08-14T05:46:18.432Z,96189.94
2022-08-14T05:49:15.444Z,96188.44
2022-08-14T05:52:17.982Z,96179.28
2022-08-14T05:55:15.630Z,96173.91
2022-08-14T05:58:13.899Z,96184.31
2022-08-14T06:01:13.670Z,96181.88
2022-08-14T06:04:11.366Z,96178.13
2022-08-14T06:07:09.486Z,96174.44
2022-08-14T06:10:09.598Z,96174.91
2022-08-14T06:13:07.788Z,96178.34
2022-08-14T06:16:06.274Z,96173.50
2022-08-14T06:19:03.150Z,96174.41
2022-08-14T06:22:02.146Z,96169.91
2022-08-14T06:24:59.654Z,96179.72
2022-08-14T06:28:00.901Z,96173.50
2022-08-14T06:31:00.941Z,96171.66
2022-08-14T06:35:09.438Z,96170.88
2022-08-14T06:37:17.064Z,96177.38
2022-08-14T06:40:27.345Z,96168.53
2022-08-14T06:43:31.779Z,96159.41
2022-08-14T06:46:34.135Z,96157.78
2022-08-14T06:49:42.722Z,96156.34
2022-08-14T06:52:50.309Z,96154.22
2022-08-14T06:55:58.077Z,96164.75
2022-08-14T06:58:56.421Z,96160.13
2022-08-14T07:02:13.678Z,96169.13
2022-08-14T07:05:33.644Z,96161.56
2022-08-14T07:08:32.176Z,96168.41
2022-08-14T07:11:29.622Z,96165.78
2022-08-14T07:14:26.670Z,96166.75
2022-08-14T07:17:23.509Z,96166.28
2022-08-14T07:20:31.412Z,96159.56
2022-08-14T07:23:31.429Z,96162.59
2022-08-14T07:26:29.519Z,96166.94
2022-08-14T07:29:26.551Z,96167.66
2022-08-14T07:32:34.043Z,96157.00
2022-08-14T07:35:42.815Z,96150.56
2022-08-14T07:38:52.329Z,96155.00
2022-08-14T07:41:49.618Z,96148.13
2022-08-14T07:44:50.387Z,96145.13
2022-08-14T07:47:47.662Z,96142.22
2022-08-14T07:50:46.444Z,96131.72
2022-08-14T07:53:44.998Z,96122.09
2022-08-14T07:56:48.750Z,96128.72
2022-08-14T07:59:49.423Z,96133.75
2022-08-14T08:02:53.129Z,96130.69
2022-08-14T08:05:54.022Z,96118.81
2022-08-14T08:09:01.270Z,96118.81
2022-08-14T08:12:04.956Z,96117.25
2022-08-14T08:15:07.139Z,96121.16
2022-08-14T08:18:27.257Z,96122.69
2022-08-14T08:21:27.059Z,96109.88
2022-08-14T08:24:24.122Z,96117.25
2022-08-14T08:27:21.436Z,96107.53
2022-08-14T08:30:18.519Z,96098.09
2022-08-14T08:33:16.423Z,96092.16
2022-08-14T08:36:18.881Z,96082.84
2022-08-14T08:39:22.793Z,96086.34
2022-08-14T08:42:31.478Z,96079.25
2022-08-14T08:45:36.752Z,96068.72
2022-08-14T08:48:53.592Z,96066.44
2022-08-14T08:51:51.047Z,96067.84
2022-08-14T08:54:55.950Z,96065.31
2022-08-14T08:58:01.186Z,96066.13
2022-08-14T09:01:00.580Z,96052.13
2022-08-14T09:04:04.572Z,96055.94
2022-08-14T09:07:11.664Z,96075.44
2022-08-14T09:10:09.108Z,96053.66
2022-08-14T09:13:11.566Z,96049.41
2022-08-14T09:16:19.302Z,96061.09
2022-08-14T09:19:17.832Z,96050.22
2022-08-14T09:22:35.405Z,96048.75
2022-08-14T09:25:59.869Z,96040.78
2022-08-14T09:28:49.904Z,96038.75
2022-08-14T09:31:53.423Z,96049.00
2022-08-14T09:35:13.028Z,96042.41
2022-08-14T09:38:31.994Z,96023.91
2022-08-14T09:42:17.470Z,96031.34
2022-08-14T09:45:40.037Z,96027.88
2022-08-14T09:49:04.125Z,96030.78
2022-08-14T09:52:33.161Z,96022.06
2022-08-14T09:55:41.622Z,96030.34
2022-08-14T09:58:46.266Z,96028.13
2022-08-14T10:01:46.156Z,96019.19
2022-08-14T10:05:11.586Z,96005.16
2022-08-14T10:08:26.299Z,96002.94
2022-08-14T10:11:34.958Z,96009.41
2022-08-14T10:14:36.682Z,95998.53
2022-08-14T10:17:38.873Z,95990.75
2022-08-14T10:21:01.570Z,95990.28
2022-08-14T10:23:58.556Z,95997.94
2022-08-14T10:27:00.955Z,96003.25
2022-08-14T10:30:04.649Z,95998.47
2022-08-14T10:33:01.525Z,95992.16
2022-08-14T10:36:03.875Z,95983.09
2022-08-14T10:39:04.935Z,95975.72
2022-08-14T10:42:16.608Z,95974.63
2022-08-14T10:45:25.574Z,95962.63
2022-08-14T10:48:24.131Z,95965.34
2022-08-14T10:51:41.666Z,95940.16
2022-08-14T10:54:47.314Z,95948.69
2022-08-14T10:57:51.203Z,95950.81
2022-08-14T11:01:00.961Z,95935.25
2022-08-14T11:03:58.744Z,95956.56
2022-08-14T11:06:56.815Z,95951.50
2022-08-14T11:10:00.268Z,95942.78
2022-08-14T11:12:57.713Z,95946.28
2022-08-14T11:16:00.443Z,95938.78
2022-08-14T11:18:59.637Z,95941.72
2022-08-14T11:22:00.969Z,95929.53
2022-08-14T11:25:06.452Z,95927.13
2022-08-14T11:28:05.691Z,95937.81
2022-08-14T11:31:15.671Z,95928.75
2022-08-14T11:34:32.199Z,95933.91
2022-08-14T11:37:40.561Z,95920.03
2022-08-14T11:40:39.533Z,95924.53
2022-08-14T11:43:57.705Z,95911.41
2022-08-14T11:46:55.815Z,95910.06
2022-08-14T11:49:53.367Z,95921.06
2022-08-14T11:52:57.253Z,95912.75
2022-08-14T11:56:04.389Z,95904.88
2022-08-14T11:59:03.570Z,95896.00
2022-08-14T12:03:00.142Z,95882.31
2022-08-14T12:05:42.423Z,95875.19
2022-08-14T12:08:40.557Z,95868.91
2022-08-14T12:11:44.266Z,95855.22
2022-08-14T12:15:00.158Z,95863.78
2022-08-14T12:17:58.220Z,95862.47
2022-08-14T12:20:59.955Z,95852.03
2022-08-14T12:24:09.599Z,95852.47
2022-08-14T12:27:53.324Z,95872.81
2022-08-14T12:30:53.574Z,95871.75
2022-08-14T12:34:10.259Z,95868.81
2022-08-14T12:37:09.181Z,95867.00
2022-08-14T12:40:14.122Z,95859.63
2022-08-14T12:43:19.204Z,95855.56
2022-08-14T12:46:27.198Z,95843.22
2022-08-14T12:49:26.017Z,95845.34
2022-08-14T12:52:45.401Z,95849.34
2022-08-14T12:56:22.417Z,95850.06
2022-08-14T12:59:18.516Z,95862.34
2022-08-14T13:02:39.174Z,95856.50
2022-08-14T13:05:40.127Z,95855.88
2022-08-14T13:08:37.756Z,95852.25
2022-08-14T13:11:58.825Z,95857.81
2022-08-14T13:15:12.588Z,95856.50
2022-08-14T13:18:14.261Z,95848.69
2022-08-14T13:21:14.550Z,95840.16
2022-08-14T13:24:15.705Z,95838.47
2022-08-14T13:27:13.018Z,95834.19
2022-08-14T13:30:23.435Z,95837.78
2022-08-14T13:33:21.868Z,95827.31
2022-08-14T13:36:24.151Z,95814.00
2022-08-14T13:39:36.677Z,95823.97
2022-08-14T13:42:36.472Z,95815.59
2022-08-14T13:45:59.929Z,95810.06
2022-08-14T13:48:51.434Z,95805.53
2022-08-14T13:51:54.332Z,95793.94
2022-08-14T13:54:55.623Z,95789.81
2022-08-14T13:58:03.182Z,95792.66
2022-08-14T14:01:02.157Z,95788.88
2022-08-14T14:04:05.195Z,95787.38
2022-08-14T14:07:12.963Z,95791.22
2022-08-14T14:10:10.246Z,95780.41
2022-08-14T14:13:07.610Z,95781.69
2022-08-14T14:16:06.275Z,95780.69
2022-08-14T14:19:09.480Z,95786.66
2022-08-14T14:22:07.269Z,95789.16
2022-08-14T14:25:07.215Z,95778.41
2022-08-14T14:28:04.493Z,95772.34
2022-08-14T14:31:05.945Z,95762.19
2022-08-14T14:34:12.575Z,95760.72
2022-08-14T14:37:24.086Z,95759.19
2022-08-14T14:40:54.821Z,95752.66
2022-08-14T14:43:44.869Z,95750.50
2022-08-14T14:46:51.009Z,95746.44
2022-08-14T14:49:55.013Z,95744.56
2022-08-14T14:52:53.989Z,95740.94
2022-08-14T14:56:50.917Z,95735.88
2022-08-14T14:59:27.918Z,95745.81
2022-08-14T15:02:38.126Z,95739.91
2022-08-14T15:05:35.966Z,95730.38
2022-08-14T15:08:55.755Z,95731.19
2022-08-14T15:11:50.170Z,95718.56
2022-08-14T15:14:57.108Z,95709.63
2022-08-14T15:17:55.122Z,95704.19
2022-08-14T15:21:02.845Z,95701.53
2022-08-14T15:23:59.752Z,95700.50
2022-08-14T15:26:59.809Z,95694.91
2022-08-14T15:29:56.895Z,95695.63
2022-08-14T15:32:55.917Z,95698.88
2022-08-14T15:35:53.408Z,95699.50
2022-08-14T15:38:56.847Z,95695.97
2022-08-14T15:41:53.670Z,95690.19
2022-08-14T15:44:57.252Z,95692.53
2022-08-14T15:47:56.399Z,95694.47
2022-08-14T15:50:54.949Z,95691.84
2022-08-14T15:53:51.872Z,95691.16
2022-08-14T15:57:01.013Z,95680.06
2022-08-14T16:00:21.387Z,95678.63
2022-08-14T16:03:35.774Z,95678.97
2022-08-14T16:06:34.295Z,95676.66
2022-08-14T16:09:31.807Z,95691.63
2022-08-14T16:12:40.322Z,95676.13
2022-08-14T16:15:41.600Z,95677.31
2022-08-14T16:18:51.069Z,95671.03
2022-08-14T16:22:01.823Z,95683.31
2022-08-14T16:25:08.355Z,95672.94
2022-08-14T16:28:07.445Z,95670.50
2022-08-14T16:31:07.603Z,95668.47
2022-08-14T16:34:43.911Z,95668.38
2022-08-14T16:40:25.497Z,95663.66
2022-08-14T16:40:44.320Z,95659.91
2022-08-14T16:43:44.116Z,95660.09
2022-08-14T16:46:46.665Z,95663.84
2022-08-14T16:50:04.754Z,95659.88
2022-08-14T16:53:07.416Z,95651.16
2022-08-14T16:56:23.295Z,95654.25
2022-08-14T16:59:30.615Z,95646.63
2022-08-14T17:02:42.925Z,95645.75
2022-08-14T17:05:43.283Z,95643.69
2022-08-14T17:08:46.285Z,95650.63
2022-08-14T17:12:07.200Z,95654.25
2022-08-14T17:15:11.173Z,95650.91
2022-08-14T17:18:18.890Z,95651.63
2022-08-14T17:21:37.346Z,95653.47
2022-08-14T17:24:57.175Z,95646.78
2022-08-14T17:28:52.161Z,95645.66
2022-08-14T17:31:57.904Z,95641.13
2022-08-14T17:34:54.439Z,95644.06
2022-08-14T17:41:33.022Z,95641.13
2022-08-14T17:44:45.185Z,95631.78
2022-08-14T17:47:46.106Z,95639.00
2022-08-14T17:51:00.342Z,95627.53
2022-08-14T17:54:02.628Z,95639.91
2022-08-14T17:57:10.434Z,95634.22
2022-08-14T18:00:14.891Z,95641.63
2022-08-14T18:03:20.195Z,95632.25
2022-08-14T18:06:40.199Z,95633.03
2022-08-14T18:09:57.143Z,95637.38
2022-08-14T18:12:56.363Z,95635.94
2022-08-14T18:15:55.952Z,95634.97
2022-08-14T18:18:53.152Z,95639.97
2022-08-14T18:21:57.441Z,95643.84
2022-08-14T18:24:54.599Z,95643.69
2022-08-14T18:27:52.813Z,95651.06
2022-08-14T18:31:19.860Z,95645.31
2022-08-14T18:34:31.849Z,95650.91
2022-08-14T18:37:31.224Z,95647.81
2022-08-14T18:40:35.179Z,95651.25
2022-08-14T18:43:44.845Z,95653.38
2022-08-14T18:47:08.470Z,95666.88
2022-08-14T18:50:26.325Z,95657.63
2022-08-14T18:53:34.370Z,95664.75
2022-08-14T18:57:05.120Z,95668.31
2022-08-14T19:00:33.810Z,95666.59
2022-08-14T19:03:36.411Z,95667.41
2022-08-14T19:06:44.612Z,95669.31
2022-08-14T19:10:07.867Z,95671.44
2022-08-14T19:13:11.825Z,95671.53
2022-08-14T19:16:17.395Z,95671.97
2022-08-14T19:19:15.510Z,95675.34
2022-08-14T19:22:29.436Z,95677.03
2022-08-14T19:25:51.656Z,95673.13
2022-08-14T19:28:49.551Z,95679.41
2022-08-14T19:31:55.731Z,95679.78
2022-08-14T19:34:53.742Z,95672.72
2022-08-14T19:37:57.083Z,95677.16
2022-08-14T19:40:54.361Z,95672.66
2022-08-14T19:43:57.050Z,95673.25
2022-08-14T19:47:01.006Z,95685.03
2022-08-14T19:50:07.704Z,95682.41
2022-08-14T19:53:17.411Z,95679.38
2022-08-14T19:56:15.245Z,95683.22
2022-08-14T19:59:26.466Z,95691.44
2022-08-14T20:02:37.442Z,95684.03
2022-08-14T20:05:43.062Z,95687.75
2022-08-14T20:11:00.561Z,95692.34
2022-08-14T20:12:28.285Z,95705.22
2022-08-14T20:15:47.405Z,95700.53
2022-08-14T20:18:48.622Z,95695.59
2022-08-14T20:22:00.800Z,95690.19
2022-08-14T20:25:19.280Z,95691.00
2022-08-14T20:28:29.713Z,95682.41
2022-08-14T20:31:37.381Z,95686.69
2022-08-14T20:34:38.694Z,95688.03
2022-08-14T20:37:48.192Z,95686.16
2022-08-14T20:40:59.831Z,95686.97
2022-08-14T20:44:20.748Z,95682.69
2022-08-14T20:47:18.785Z,95683.19
2022-08-14T20:50:29.053Z,95682.41
2022-08-14T20:53:35.475Z,95681.19
2022-08-14T20:56:37.667Z,95678.91
2022-08-14T20:59:43.486Z,95675.00
2022-08-14T21:02:49.999Z,95677.75
2022-08-14T21:05:47.847Z,95672.28
2022-08-14T21:08:58.728Z,95673.13
2022-08-14T21:12:02.853Z,95666.91
2022-08-14T21:15:00.683Z,95671.59
2022-08-14T21:17:57.748Z,95670.03
2022-08-14T21:20:55.737Z,95667.72
2022-08-14T21:23:56.464Z,95674.69
2022-08-14T21:27:02.103Z,95668.91
2022-08-14T21:30:09.797Z,95672.00
2022-08-14T21:33:09.052Z,95661.16
2022-08-14T21:36:12.134Z,95656.88
2022-08-14T21:39:19.461Z,95658.78
2022-08-14T21:42:17.417Z,95661.53
2022-08-14T21:45:14.606Z,95665.81
2022-08-14T21:48:13.392Z,95669.28
2022-08-14T21:51:54.028Z,95666.19
2022-08-14T21:54:49.423Z,95673.97
2022-08-14T21:58:44.709Z,95672.03
2022-08-14T22:01:06.461Z,95682.47
2022-08-14T22:04:32.836Z,95683.22
2022-08-14T22:07:29.082Z,95682.84
2022-08-14T22:10:26.526Z,95679.38
2022-08-14T22:13:32.375Z,95677.44
2022-08-14T22:17:03.589Z,95672.34
2022-08-14T22:19:47.405Z,95670.44
2022-08-14T22:22:55.835Z,95663.00
2022-08-14T22:25:55.113Z,95664.59
2022-08-14T22:28:55.732Z,95661.50
2022-08-14T22:31:54.269Z,95661.84
2022-08-14T22:34:51.503Z,95659.19
2022-08-14T22:37:48.806Z,95654.53
2022-08-14T22:41:26.595Z,95653.31
2022-08-14T22:44:39.115Z,95648.69
2022-08-14T22:47:40.727Z,95649.84
2022-08-14T22:50:48.840Z,95642.84
2022-08-14T22:53:52.497Z,95637.41
2022-08-14T22:56:50.705Z,95631.19
2022-08-14T22:59:47.628Z,95634.31
2022-08-14T23:02:46.427Z,95625.75
2022-08-14T23:05:52.491Z,95617.19
2022-08-14T23:09:00.190Z,95612.16
2022-08-14T23:12:28.312Z,95608.66
2022-08-14T23:15:29.807Z,95615.69
2022-08-14T23:18:29.459Z,95615.69
2022-08-14T23:21:28.802Z,95605.59
2022-08-14T23:24:26.835Z,95604.44
2022-08-14T23:27:31.696Z,95603.66
2022-08-14T23:30:41.484Z,95595.09
2022-08-14T23:33:52.116Z,95603.28
2022-08-14T23:36:56.892Z,95597.44
2022-08-14T23:39:54.401Z,95605.53
2022-08-14T23:43:11.228Z,95598.56
2022-08-14T23:46:13.097Z,95598.16
2022-08-14T23:49:12.441Z,95603.56
2022-08-14T23:52:51.192Z,95606.69
2022-08-14T23:55:32.886Z,95597.41
2022-08-14T23:58:30.209Z,95587.69
